createdAt,value
2018-06-02T00:01:05.101Z,19.67
2018-06-02T00:03:31.153Z,18.93
2018-06-02T00:05:57.246Z,19.97
2018-06-02T00:08:23.321Z,19.73
2018-06-02T00:10:49.417Z,17.80
2018-06-02T00:13:15.472Z,19.17
2018-06-02T00:15:41.555Z,19.80
2018-06-02T00:18:07.619Z,19.23
2018-06-02T00:20:33.696Z,19.13
2018-06-02T00:22:59.777Z,20.30
2018-06-02T00:25:25.847Z,18.90
2018-06-02T00:27:51.954Z,17.50
2018-06-02T00:30:18.048Z,15.43
2018-06-02T00:32:44.142Z,18.20
2018-06-02T00:35:10.971Z,16.97
2018-06-02T00:37:37.077Z,8.53
2018-06-02T00:40:03.183Z,9.40
2018-06-02T00:42:29.310Z,9.20
2018-06-02T00:44:55.385Z,8.03
2018-06-02T00:47:21.450Z,7.77
2018-06-02T00:49:47.505Z,7.90
2018-06-02T00:52:13.602Z,7.50
2018-06-02T00:54:52.054Z,7.87
2018-06-02T00:57:18.143Z,7.10
2018-06-02T00:59:44.264Z,7.57
2018-06-02T01:02:11.288Z,7.53
2018-06-02T01:04:38.087Z,8.50
2018-06-02T01:07:04.216Z,8.13
2018-06-02T01:09:30.314Z,8.87
2018-06-02T01:11:56.403Z,8.80
2018-06-02T01:14:22.493Z,9.97
2018-06-02T01:16:48.531Z,8.70
2018-06-02T01:19:14.605Z,9.97
2018-06-02T01:21:41.377Z,10.27
2018-06-02T01:24:07.442Z,12.97
2018-06-02T01:26:33.516Z,11.83
2018-06-02T01:28:59.573Z,11.40
2018-06-02T01:31:25.599Z,11.90
2018-06-02T01:33:51.680Z,10.30
2018-06-02T01:36:17.714Z,10.00
2018-06-02T01:38:43.762Z,9.70
2018-06-02T01:41:09.825Z,11.97
2018-06-02T01:43:35.905Z,9.67
2018-06-02T01:46:01.994Z,10.27
2018-06-02T01:48:28.767Z,9.40
2018-06-02T01:50:54.839Z,10.20
2018-06-02T01:53:20.899Z,11.20
2018-06-02T01:55:46.954Z,9.70
2018-06-02T01:58:13.077Z,9.60
2018-06-02T02:00:39.185Z,8.47
2018-06-02T02:03:05.213Z,8.93
2018-06-02T02:05:31.250Z,7.33
2018-06-02T02:07:57.329Z,6.70
2018-06-02T02:10:23.410Z,7.03
2018-06-02T02:12:49.518Z,7.20
2018-06-02T02:15:15.566Z,7.73
2018-06-02T02:17:41.673Z,7.77
2018-06-02T02:20:07.740Z,7.90
2018-06-02T02:22:33.908Z,6.80
2018-06-02T02:25:00.744Z,9.73
2018-06-02T02:27:26.784Z,8.60
2018-06-02T02:29:52.927Z,8.40
2018-06-02T02:32:19.103Z,9.90
2018-06-02T02:34:45.209Z,10.37
2018-06-02T02:37:11.293Z,10.67
2018-06-02T02:39:37.348Z,9.60
2018-06-02T02:42:03.408Z,9.77
2018-06-02T02:44:30.270Z,10.20
2018-06-02T02:46:57.074Z,9.50
2018-06-02T02:49:23.157Z,11.90
2018-06-02T02:51:49.225Z,10.27
2018-06-02T02:54:15.314Z,10.83
2018-06-02T02:56:41.434Z,12.73
2018-06-02T02:59:07.556Z,9.80
2018-06-02T03:01:33.633Z,9.33
2018-06-02T03:03:59.755Z,10.13
2018-06-02T03:06:25.844Z,9.70
2018-06-02T03:08:51.894Z,8.90
2018-06-02T03:11:17.952Z,8.43
2018-06-02T03:13:44.804Z,9.50
2018-06-02T03:16:10.861Z,9.87
2018-06-02T03:18:36.939Z,9.40
2018-06-02T03:21:02.960Z,8.43
2018-06-02T03:23:29.040Z,8.30
2018-06-02T03:25:55.090Z,9.10
2018-06-02T03:28:21.161Z,9.60
2018-06-02T03:30:47.258Z,9.07
2018-06-02T03:33:13.302Z,10.10
2018-06-02T03:35:39.370Z,10.63
2018-06-02T03:38:05.402Z,9.43
2018-06-02T03:40:31.478Z,11.13
2018-06-02T03:42:57.552Z,9.93
2018-06-02T03:45:23.645Z,9.70
2018-06-02T03:47:50.493Z,10.10
2018-06-02T03:50:17.252Z,10.33
2018-06-02T03:52:44.030Z,10.30
2018-06-02T03:55:10.107Z,9.97
2018-06-02T03:57:36.920Z,9.40
2018-06-02T04:00:02.998Z,9.50
2018-06-02T04:02:29.071Z,10.00
2018-06-02T04:04:55.096Z,9.70
2018-06-02T04:07:21.159Z,9.80
2018-06-02T04:09:47.919Z,10.60
2018-06-02T04:12:13.987Z,10.40
2018-06-02T04:14:40.026Z,11.33
2018-06-02T04:17:06.064Z,10.53
2018-06-02T04:19:32.869Z,10.43
2018-06-02T04:21:58.911Z,9.30
2018-06-02T04:24:24.934Z,10.67
2018-06-02T04:26:50.993Z,9.20
2018-06-02T04:29:17.784Z,10.83
2018-06-02T04:31:43.845Z,9.97
2018-06-02T04:34:09.866Z,10.40
2018-06-02T04:36:35.929Z,10.40
2018-06-02T04:39:01.974Z,9.80
2018-06-02T04:41:27.997Z,9.60
2018-06-02T04:43:54.069Z,9.37
2018-06-02T04:46:20.121Z,8.00
2018-06-02T04:48:46.909Z,8.77
2018-06-02T04:51:13.035Z,9.93
2018-06-02T04:53:39.104Z,8.80
2018-06-02T04:56:05.877Z,8.73
2018-06-02T04:58:31.939Z,9.30
2018-06-02T05:00:58.017Z,8.53
2018-06-02T05:03:24.060Z,9.37
2018-06-02T05:05:50.167Z,9.30
2018-06-02T05:08:16.270Z,9.00
2018-06-02T05:10:43.102Z,8.73
2018-06-02T05:13:09.183Z,8.33
2018-06-02T05:15:35.967Z,8.30
2018-06-02T05:18:02.030Z,7.47
2018-06-02T05:20:28.098Z,6.83
2018-06-02T05:22:54.173Z,7.70
2018-06-02T05:25:20.231Z,7.17
2018-06-02T05:27:46.336Z,7.40
2018-06-02T05:30:12.365Z,6.90
2018-06-02T05:32:38.446Z,7.00
2018-06-02T05:35:04.487Z,7.10
2018-06-02T05:37:31.261Z,6.00
2018-06-02T05:39:57.338Z,5.53
2018-06-02T05:42:23.377Z,5.70
2018-06-02T05:44:49.549Z,6.20
2018-06-02T05:47:15.613Z,5.73
2018-06-02T05:49:41.685Z,5.87
2018-06-02T05:52:07.713Z,7.17
2018-06-02T05:54:33.803Z,5.87
2018-06-02T05:56:59.834Z,5.90
2018-06-02T05:59:25.993Z,5.43
2018-06-02T06:01:52.137Z,5.60
2018-06-02T06:04:18.222Z,5.60
2018-06-02T06:06:45.011Z,6.37
2018-06-02T06:09:11.100Z,6.90
2018-06-02T06:11:37.156Z,6.60
2018-06-02T06:14:03.232Z,7.53
2018-06-02T06:16:29.311Z,8.30
2018-06-02T06:18:55.452Z,7.07
2018-06-02T06:21:21.588Z,7.30
2018-06-02T06:23:47.751Z,7.33
2018-06-02T06:26:14.565Z,6.80
2018-06-02T06:28:40.747Z,7.03
2018-06-02T06:31:06.942Z,6.83
2018-06-02T06:33:33.075Z,5.83
2018-06-02T06:35:59.168Z,6.97
2018-06-02T06:38:25.345Z,6.73
2018-06-02T06:40:52.252Z,6.57
2018-06-02T06:43:18.317Z,6.20
2018-06-02T06:45:44.441Z,6.33
2018-06-02T06:48:10.533Z,6.57
2018-06-02T06:50:36.689Z,7.20
2018-06-02T06:53:02.708Z,6.27
2018-06-02T06:55:28.894Z,6.40
2018-06-02T06:57:55.014Z,6.30
2018-06-02T07:00:21.087Z,6.80
2018-06-02T07:02:47.913Z,6.43
2018-06-02T07:05:14.008Z,5.60
2018-06-02T07:07:40.097Z,5.70
2018-06-02T07:10:06.912Z,6.17
2018-06-02T07:12:32.983Z,5.73
2018-06-02T07:14:59.138Z,5.80
2018-06-02T07:17:25.292Z,5.83
2018-06-02T07:19:51.524Z,6.27
2018-06-02T07:22:17.614Z,6.00
2018-06-02T07:24:43.767Z,5.73
2018-06-02T07:27:09.864Z,7.00
2018-06-02T07:29:35.888Z,5.87
2018-06-02T07:32:01.973Z,5.93
2018-06-02T07:34:28.801Z,5.57
2018-06-02T07:36:54.871Z,5.60
2018-06-02T07:39:20.921Z,4.90
2018-06-02T07:41:46.979Z,5.53
2018-06-02T07:44:13.044Z,5.30
2018-06-02T07:46:39.189Z,4.43
2018-06-02T07:49:05.253Z,4.50
2018-06-02T07:51:31.324Z,5.53
2018-06-02T07:53:57.416Z,3.90
2018-06-02T07:56:23.576Z,4.20
2018-06-02T07:58:49.689Z,5.37
2018-06-02T08:01:16.520Z,4.67
2018-06-02T08:03:43.381Z,4.90
2018-06-02T08:06:10.500Z,3.67
2018-06-02T08:08:36.691Z,3.97
2018-06-02T08:11:02.732Z,3.77
2018-06-02T08:13:28.921Z,3.50
2018-06-02T08:15:55.129Z,3.83
2018-06-02T08:18:22.001Z,4.33
2018-06-02T08:20:48.101Z,4.47
2018-06-02T08:23:14.942Z,3.93
2018-06-02T08:25:41.019Z,4.07
2018-06-02T08:28:07.821Z,4.33
2018-06-02T08:30:37.747Z,4.00
2018-06-02T08:33:03.826Z,4.33
2018-06-02T08:35:31.946Z,3.87
2018-06-02T08:37:57.993Z,5.47
2018-06-02T08:40:24.060Z,6.13
2018-06-02T08:42:50.153Z,5.60
2018-06-02T08:45:16.217Z,4.60
2018-06-02T08:47:42.252Z,4.80
2018-06-02T08:50:09.001Z,4.93
2018-06-02T08:52:35.045Z,5.10
2018-06-02T08:55:01.126Z,5.00
2018-06-02T08:57:27.256Z,4.77
2018-06-02T08:59:53.303Z,5.03
2018-06-02T09:02:20.102Z,4.47
2018-06-02T09:04:46.177Z,5.63
2018-06-02T09:07:13.035Z,4.80
2018-06-02T09:09:39.138Z,5.97
2018-06-02T09:12:05.237Z,5.13
2018-06-02T09:14:31.326Z,5.23
2018-06-02T09:16:57.381Z,5.50
2018-06-02T09:19:23.511Z,6.47
2018-06-02T09:21:49.669Z,6.20
2018-06-02T09:24:16.488Z,5.17
2018-06-02T09:26:42.568Z,6.13
2018-06-02T09:29:08.732Z,7.00
2018-06-02T09:31:34.777Z,7.20
2018-06-02T09:34:01.741Z,5.90
2018-06-02T09:36:28.534Z,7.77
2018-06-02T09:38:54.596Z,7.13
2018-06-02T09:41:20.610Z,5.60
2018-06-02T09:43:46.689Z,6.67
2018-06-02T09:46:12.735Z,6.03
2018-06-02T09:48:38.764Z,6.40
2018-06-02T09:51:04.840Z,6.90
2018-06-02T09:53:31.676Z,5.97
2018-06-02T09:55:57.723Z,7.17
2018-06-02T09:58:23.780Z,6.07
2018-06-02T10:00:49.824Z,7.20
2018-06-02T10:03:15.908Z,8.10
2018-06-02T10:05:41.960Z,8.43
2018-06-02T10:08:08.027Z,9.27
2018-06-02T10:10:34.894Z,6.70
2018-06-02T10:13:00.939Z,7.40
2018-06-02T10:15:27.013Z,8.40
2018-06-02T10:17:53.076Z,7.40
2018-06-02T10:20:19.222Z,8.10
2018-06-02T10:22:45.249Z,7.43
2018-06-02T10:25:11.322Z,6.77
2018-06-02T10:27:37.409Z,7.53
2018-06-02T10:30:03.537Z,7.93
2018-06-02T10:32:29.617Z,9.27
2018-06-02T10:34:55.677Z,8.00
2018-06-02T10:37:21.742Z,7.57
2018-06-02T10:39:47.799Z,8.00
2018-06-02T10:42:14.606Z,10.33
2018-06-02T10:44:40.682Z,8.20
2018-06-02T10:47:07.479Z,9.57
2018-06-02T10:49:33.504Z,9.97
2018-06-02T10:51:59.573Z,9.97
2018-06-02T10:54:25.624Z,10.33
2018-06-02T10:56:51.670Z,9.37
2018-06-02T10:59:17.753Z,9.20
2018-06-02T11:01:43.789Z,9.20
2018-06-02T11:04:10.176Z,9.60
2018-06-02T11:06:36.307Z,9.50
2018-06-02T11:09:03.165Z,9.03
2018-06-02T11:11:30.007Z,10.13
2018-06-02T11:13:56.075Z,9.47
2018-06-02T11:16:22.159Z,9.50
2018-06-02T11:18:48.998Z,8.83
2018-06-02T11:21:16.838Z,8.00
2018-06-02T11:23:44.632Z,7.20
2018-06-02T11:26:12.476Z,8.43
2018-06-02T11:28:40.306Z,9.17
2018-06-02T11:31:08.106Z,8.63
2018-06-02T11:33:35.998Z,9.63
2018-06-02T11:36:03.882Z,9.70
2018-06-02T11:38:31.711Z,9.80
2018-06-02T11:40:59.520Z,10.97
2018-06-02T11:43:27.368Z,11.40
2018-06-02T11:45:55.196Z,11.70
2018-06-02T11:48:23.036Z,10.33
2018-06-02T11:50:50.863Z,10.43
2018-06-02T11:53:18.726Z,11.87
2018-06-02T11:55:46.599Z,12.87
2018-06-02T11:58:14.455Z,10.60
2018-06-02T12:00:42.250Z,11.27
2018-06-02T12:03:10.134Z,11.53
2018-06-02T12:05:38.075Z,9.90
2018-06-02T12:08:05.897Z,8.00
2018-06-02T12:10:33.739Z,11.60
2018-06-02T12:13:01.604Z,12.80
2018-06-02T12:15:29.429Z,10.43
2018-06-02T12:17:57.297Z,10.43
2018-06-02T12:20:25.137Z,12.37
2018-06-02T12:22:52.955Z,11.30
2018-06-02T12:25:20.761Z,11.80
2018-06-02T12:27:48.586Z,12.80
2018-06-02T12:30:16.413Z,11.27
2018-06-02T12:32:44.238Z,12.70
2018-06-02T12:35:12.088Z,13.13
2018-06-02T12:37:39.882Z,13.50
2018-06-02T12:40:07.764Z,12.97
2018-06-02T12:42:35.552Z,12.53
2018-06-02T12:45:03.363Z,12.70
2018-06-02T12:47:31.205Z,12.60
2018-06-02T12:49:59.017Z,12.70
2018-06-02T12:52:26.855Z,11.73
2018-06-02T12:54:54.728Z,10.77
2018-06-02T12:57:22.679Z,11.40
2018-06-02T12:59:50.540Z,9.80
2018-06-02T13:02:18.402Z,10.07
2018-06-02T13:04:46.289Z,10.87
2018-06-02T13:07:14.143Z,9.93
2018-06-02T13:09:41.959Z,12.67
2018-06-02T13:12:09.788Z,10.30
2018-06-02T13:14:37.671Z,9.63
2018-06-02T13:17:05.516Z,10.93
2018-06-02T13:19:33.346Z,12.07
2018-06-02T13:22:01.172Z,12.17
2018-06-02T13:24:29.110Z,11.00
2018-06-02T13:26:57.037Z,11.80
2018-06-02T13:29:24.910Z,11.53
2018-06-02T13:31:52.748Z,10.87
2018-06-02T13:34:20.577Z,10.63
2018-06-02T13:36:48.415Z,10.27
2018-06-02T13:39:16.294Z,10.40
2018-06-02T13:41:44.204Z,10.80
2018-06-02T13:44:12.025Z,10.43
2018-06-02T13:46:39.883Z,9.70
2018-06-02T13:49:07.752Z,9.97
2018-06-02T13:51:35.624Z,10.83
2018-06-02T13:54:03.605Z,9.30
2018-06-02T13:56:31.514Z,9.87
2018-06-02T13:58:59.430Z,10.40
2018-06-02T14:01:26.676Z,10.20
2018-06-02T14:03:52.765Z,8.97
2018-06-02T14:06:18.861Z,10.63
2018-06-02T14:08:45.043Z,10.10
2018-06-02T14:11:12.949Z,8.07
2018-06-02T14:13:39.063Z,9.40
2018-06-02T14:16:05.256Z,9.00
2018-06-02T14:18:31.503Z,8.00
2018-06-02T14:20:57.707Z,9.60
2018-06-02T14:23:25.622Z,9.10
2018-06-02T14:25:53.477Z,8.50
2018-06-02T14:28:21.428Z,8.30
2018-06-02T14:30:49.337Z,8.37
2018-06-02T14:33:17.218Z,8.60
2018-06-02T14:35:45.145Z,8.30
2018-06-02T14:38:13.034Z,8.27
2018-06-02T14:40:39.072Z,8.20
2018-06-02T14:43:05.814Z,7.73
2018-06-02T14:45:31.902Z,7.10
2018-06-02T14:47:57.968Z,8.00
2018-06-02T14:50:24.070Z,8.50
2018-06-02T14:52:50.097Z,8.33
2018-06-02T14:55:16.912Z,8.07
2018-06-02T14:57:43.033Z,7.90
2018-06-02T15:00:09.839Z,7.53
2018-06-02T15:02:35.934Z,8.93
2018-06-02T15:05:02.037Z,8.20
2018-06-02T15:07:28.065Z,7.90
2018-06-02T15:09:54.127Z,8.40
2018-06-02T15:12:20.229Z,9.37
2018-06-02T15:14:46.338Z,8.50
2018-06-02T15:17:12.444Z,8.07
2018-06-02T15:19:38.522Z,9.50
2018-06-02T15:22:04.622Z,8.10
2018-06-02T15:24:31.381Z,8.90
2018-06-02T15:26:57.451Z,9.83
2018-06-02T15:29:23.563Z,9.80
2018-06-02T15:31:49.711Z,9.60
2018-06-02T15:34:15.771Z,10.80
2018-06-02T15:36:41.927Z,9.77
2018-06-02T15:39:07.946Z,13.80
2018-06-02T15:41:34.071Z,15.87
2018-06-02T15:44:00.154Z,22.60
2018-06-02T15:46:26.218Z,20.80
2018-06-02T15:48:52.319Z,20.10
2018-06-02T15:51:20.302Z,19.47
2018-06-02T15:53:46.385Z,17.20
2018-06-02T15:56:12.426Z,16.97
2018-06-02T15:58:39.248Z,13.87
2018-06-02T16:01:05.370Z,11.00
2018-06-02T16:03:31.445Z,11.20
2018-06-02T16:05:57.749Z,12.43
2018-06-02T16:08:23.943Z,13.80
2018-06-02T16:10:50.025Z,12.63
2018-06-02T16:13:16.823Z,14.10
2018-06-02T16:15:42.858Z,14.20
2018-06-02T16:18:09.058Z,14.10
2018-06-02T16:20:35.090Z,13.70
2018-06-02T16:23:01.194Z,13.87
2018-06-02T16:25:27.317Z,13.77
2018-06-02T16:27:53.370Z,14.80
2018-06-02T16:30:19.459Z,13.47
2018-06-02T16:32:46.630Z,14.20
2018-06-02T16:35:13.026Z,14.80
2018-06-02T16:37:39.838Z,14.70
2018-06-02T16:40:05.939Z,12.67
2018-06-02T16:42:33.106Z,12.93
2018-06-02T16:44:59.209Z,13.97
2018-06-02T16:47:25.339Z,12.90
2018-06-02T16:49:51.458Z,11.70
2018-06-02T16:52:17.519Z,10.07
2018-06-02T16:54:43.563Z,10.10
2018-06-02T16:57:09.633Z,11.80
2018-06-02T16:59:35.715Z,12.80
2018-06-02T17:02:01.766Z,12.87
2018-06-02T17:04:27.817Z,11.33
2018-06-02T17:06:53.884Z,11.80
2018-06-02T17:09:19.970Z,11.53
2018-06-02T17:11:46.058Z,10.07
2018-06-02T17:14:12.114Z,12.33
2018-06-02T17:16:38.239Z,12.10
2018-06-02T17:19:04.315Z,11.20
2018-06-02T17:21:31.130Z,11.20
2018-06-02T17:23:57.248Z,12.30
2018-06-02T17:26:23.403Z,12.50
2018-06-02T17:28:49.533Z,12.70
2018-06-02T17:31:15.606Z,13.30
2018-06-02T17:33:41.698Z,13.67
2018-06-02T17:36:07.772Z,11.80
2018-06-02T17:38:33.823Z,13.47
2018-06-02T17:40:59.931Z,11.47
2018-06-02T17:43:26.720Z,12.03
2018-06-02T17:45:53.055Z,11.40
2018-06-02T17:48:19.237Z,12.23
2018-06-02T17:50:45.419Z,11.17
2018-06-02T17:53:11.477Z,12.23
2018-06-02T17:55:37.564Z,10.90
2018-06-02T17:58:03.667Z,12.00
2018-06-02T18:00:30.785Z,12.37
2018-06-02T18:02:56.888Z,11.43
2018-06-02T18:05:22.949Z,11.17
2018-06-02T18:07:49.259Z,11.30
2018-06-02T18:10:15.517Z,10.70
2018-06-02T18:12:41.567Z,12.13
2018-06-02T18:15:07.698Z,12.30
2018-06-02T18:17:33.762Z,13.33
2018-06-02T18:19:59.863Z,11.93
2018-06-02T18:22:25.994Z,11.33
2018-06-02T18:24:52.139Z,11.90
2018-06-02T18:27:19.035Z,12.00
2018-06-02T18:29:45.127Z,11.97
2018-06-02T18:32:11.315Z,12.40
2018-06-02T18:34:37.400Z,12.20
2018-06-02T18:37:03.635Z,12.70
2018-06-02T18:39:29.728Z,11.17
2018-06-02T18:41:55.811Z,11.50
2018-06-02T18:44:21.977Z,11.23
2018-06-02T18:46:48.051Z,11.00
2018-06-02T18:49:15.427Z,11.33
2018-06-02T18:51:42.266Z,12.53
2018-06-02T18:54:08.360Z,10.87
2018-06-02T18:56:34.498Z,10.47
2018-06-02T18:59:00.529Z,12.10
2018-06-02T19:01:26.573Z,11.53
2018-06-02T19:03:52.746Z,11.57
2018-06-02T19:06:18.799Z,11.70
2018-06-02T19:08:44.925Z,11.83
2018-06-02T19:11:11.125Z,11.53
2018-06-02T19:13:37.270Z,12.33
2018-06-02T19:16:03.345Z,13.97
2018-06-02T19:18:29.450Z,14.50
2018-06-02T19:20:55.563Z,11.90
2018-06-02T19:23:21.635Z,11.10
2018-06-02T19:25:47.694Z,12.40
2018-06-02T19:28:13.766Z,11.83
2018-06-02T19:30:39.845Z,12.07
2018-06-02T19:33:05.923Z,11.17
2018-06-02T19:35:32.128Z,11.67
2018-06-02T19:37:58.185Z,11.30
2018-06-02T19:40:24.340Z,12.60
2018-06-02T19:42:53.918Z,12.40
2018-06-02T19:45:20.097Z,12.07
2018-06-02T19:47:46.184Z,11.43
2018-06-02T19:50:12.970Z,13.13
2018-06-02T19:52:39.052Z,11.87
2018-06-02T19:55:05.124Z,12.90
2018-06-02T19:57:31.165Z,12.83
2018-06-02T19:59:57.267Z,11.90
2018-06-02T20:02:23.322Z,12.27
2018-06-02T20:04:49.408Z,13.67
2018-06-02T20:07:15.517Z,12.90
2018-06-02T20:09:41.605Z,11.60
2018-06-02T20:12:07.725Z,13.53
2018-06-02T20:14:34.822Z,13.10
2018-06-02T20:17:00.903Z,13.20
2018-06-02T20:19:27.008Z,13.47
2018-06-02T20:21:53.072Z,13.77
2018-06-02T20:24:19.177Z,13.37
2018-06-02T20:26:45.388Z,14.13
2018-06-02T20:29:11.474Z,15.37
2018-06-02T20:31:38.330Z,13.67
2018-06-02T20:34:04.398Z,13.10
2018-06-02T20:36:30.522Z,12.00
2018-06-02T20:38:57.725Z,12.20
2018-06-02T20:41:23.988Z,14.20
2018-06-02T20:43:50.173Z,14.27
2018-06-02T20:46:16.242Z,12.63
2018-06-02T20:48:42.364Z,13.90
2018-06-02T20:51:08.481Z,13.10
2018-06-02T20:53:34.567Z,14.67
2018-06-02T20:56:00.658Z,13.70
2018-06-02T20:58:26.760Z,14.43
2018-06-02T21:00:52.842Z,14.10
2018-06-02T21:03:18.918Z,14.23
2018-06-02T21:05:46.129Z,12.77
2018-06-02T21:08:12.202Z,12.37
2018-06-02T21:10:38.296Z,14.57
2018-06-02T21:13:04.386Z,13.47
2018-06-02T21:15:30.406Z,13.23
2018-06-02T21:17:56.455Z,12.67
2018-06-02T21:20:22.522Z,12.47
2018-06-02T21:22:48.625Z,12.47
2018-06-02T21:25:15.413Z,13.87
2018-06-02T21:27:41.453Z,12.80
2018-06-02T21:30:07.557Z,13.00
2018-06-02T21:32:33.581Z,13.27
2018-06-02T21:34:59.689Z,12.17
2018-06-02T21:37:25.717Z,15.20
2018-06-02T21:39:51.753Z,14.20
2018-06-02T21:42:17.881Z,14.50
2018-06-02T21:44:44.069Z,13.20
2018-06-02T21:47:10.236Z,16.27
2018-06-02T21:49:36.325Z,16.20
2018-06-02T21:52:02.399Z,15.33
2018-06-02T21:54:30.126Z,14.93
2018-06-02T21:56:56.977Z,15.60
2018-06-02T21:59:23.038Z,15.90
2018-06-02T22:01:49.104Z,16.03
2018-06-02T22:04:15.200Z,15.27
2018-06-02T22:06:41.304Z,16.83
2018-06-02T22:09:07.395Z,15.33
2018-06-02T22:11:33.468Z,17.30
2018-06-02T22:13:59.561Z,16.37
2018-06-02T22:16:25.625Z,15.67
2018-06-02T22:18:51.767Z,16.73
2018-06-02T22:21:17.876Z,16.47
2018-06-02T22:23:43.978Z,15.50
2018-06-02T22:26:10.118Z,16.00
2018-06-02T22:28:36.203Z,14.80
2018-06-02T22:31:03.069Z,17.13
2018-06-02T22:33:34.158Z,16.13
2018-06-02T22:36:00.307Z,16.73
2018-06-02T22:38:26.380Z,17.33
2018-06-02T22:40:52.439Z,18.17
2018-06-02T22:43:18.529Z,19.90
2018-06-02T22:45:44.590Z,18.83
2018-06-02T22:48:10.689Z,18.67
2018-06-02T22:50:36.810Z,18.17
2018-06-02T22:53:02.876Z,19.90
2018-06-02T22:55:28.977Z,18.23
2018-06-02T22:57:55.064Z,19.37
2018-06-02T23:00:21.108Z,18.53
2018-06-02T23:02:47.172Z,17.97
2018-06-02T23:05:13.237Z,20.40
2018-06-02T23:07:39.332Z,18.60
2018-06-02T23:10:05.474Z,17.73
2018-06-02T23:12:31.560Z,18.90
2018-06-02T23:14:57.617Z,17.97
2018-06-02T23:17:23.674Z,20.17
2018-06-02T23:19:50.457Z,21.60
2018-06-02T23:22:22.594Z,20.63
2018-06-02T23:24:48.658Z,20.93
2018-06-02T23:27:14.763Z,20.43
2018-06-02T23:29:40.826Z,19.60
2018-06-02T23:32:06.968Z,20.60
2018-06-02T23:34:33.012Z,21.90
2018-06-02T23:36:59.054Z,20.30
2018-06-02T23:39:25.177Z,20.93
2018-06-02T23:41:51.224Z,21.93
2018-06-02T23:44:17.284Z,21.10
2018-06-02T23:46:43.384Z,24.70
2018-06-02T23:49:09.432Z,26.37
2018-06-02T23:51:35.495Z,28.90
2018-06-02T23:54:01.605Z,27.30
2018-06-02T23:56:28.483Z,26.27
2018-06-02T23:58:54.625Z,27.43
